RYR67CF LATI-LGIR
Flight info
| Callsign | RYR67CF |
|---|---|
| Flight time | 1h 13m |
| Altitude | 33000 |
| Route | ELBAK2W ELBAK DCT PINDO UL607 ATV UM749 MIL UL617 XAVIS XAVIS1A |
| Aircraft | B738/M-SDE2E3FGHIRWXY/LB1 |
Departure
| Time | 2026-05-07 15:58 |
|---|---|
| Airport | Tirana International Airport Mother Teresa (LATI) |
Arrival
| Time | 2026-05-07 17:11 |
|---|---|
| Airport | Heraklion International Nikos Kazantzakis Airport (LGIR) |
| Time | Latitude | Longitude | Altitude | Speed | Heading |
|---|---|---|---|---|---|
| 2026-05-07 15:48 | 41.41910 | 19.71523 | 121 ft | 0 kts | 264° |
| 2026-05-07 15:52 | 41.41911 | 19.71539 | 118 ft | 3 kts | 264° |
| 2026-05-07 15:53 | 41.41916 | 19.71569 | 119 ft | 4 kts | 231° |
| 2026-05-07 15:53 | 41.41936 | 19.71582 | 119 ft | 4 kts | 177° |
| 2026-05-07 15:53 | 41.41950 | 19.71580 | 121 ft | 1 kts | 174° |
| 2026-05-07 15:53 | 41.41951 | 19.71580 | 121 ft | 0 kts | 174° |
| 2026-05-07 15:54 | 41.41950 | 19.71580 | 121 ft | 2 kts | 174° |
| 2026-05-07 15:55 | 41.41876 | 19.71590 | 122 ft | 19 kts | 174° |
| 2026-05-07 15:55 | 41.41704 | 19.71614 | 123 ft | 28 kts | 174° |
| 2026-05-07 15:55 | 41.41516 | 19.71639 | 125 ft | 26 kts | 174° |
| 2026-05-07 15:55 | 41.41340 | 19.71662 | 127 ft | 25 kts | 174° |
| 2026-05-07 15:56 | 41.41176 | 19.71685 | 127 ft | 23 kts | 174° |
| 2026-05-07 15:56 | 41.41009 | 19.71707 | 128 ft | 31 kts | 173° |
| 2026-05-07 15:56 | 41.40718 | 19.71764 | 130 ft | 46 kts | 173° |
| 2026-05-07 15:56 | 41.40415 | 19.71809 | 131 ft | 39 kts | 160° |
| 2026-05-07 15:57 | 41.40242 | 19.72047 | 132 ft | 36 kts | 91° |
| 2026-05-07 15:57 | 41.40346 | 19.72207 | 131 ft | 29 kts | 356° |
| 2026-05-07 15:57 | 41.40781 | 19.72148 | 132 ft | 102 kts | 354° |
| 2026-05-07 15:57 | 41.41733 | 19.72031 | 180 ft | 166 kts | 354° |
| 2026-05-07 15:58 | 41.42868 | 19.71918 | 907 ft | 176 kts | 352° |
| 2026-05-07 15:58 | 41.44137 | 19.71732 | 1765 ft | 191 kts | 353° |
| 2026-05-07 15:58 | 41.45521 | 19.71523 | 2343 ft | 213 kts | 354° |
| 2026-05-07 15:58 | 41.47090 | 19.71306 | 2573 ft | 238 kts | 354° |
| 2026-05-07 15:59 | 41.48815 | 19.71073 | 2829 ft | 262 kts | 354° |
| 2026-05-07 15:59 | 41.50679 | 19.70825 | 3449 ft | 274 kts | 355° |
| 2026-05-07 15:59 | 41.52591 | 19.70850 | 4341 ft | 276 kts | 359° |
| 2026-05-07 15:59 | 41.54475 | 19.70324 | 5096 ft | 280 kts | 331° |
| 2026-05-07 16:00 | 41.55949 | 19.68737 | 5963 ft | 275 kts | 303° |
| 2026-05-07 16:00 | 41.56722 | 19.66470 | 6802 ft | 271 kts | 277° |
| 2026-05-07 16:00 | 41.56636 | 19.64048 | 7635 ft | 265 kts | 250° |
| 2026-05-07 16:00 | 41.55740 | 19.61987 | 8454 ft | 264 kts | 225° |
| 2026-05-07 16:01 | 41.54189 | 19.60681 | 9278 ft | 269 kts | 200° |
| 2026-05-07 16:01 | 41.52314 | 19.60391 | 10048 ft | 278 kts | 177° |
| 2026-05-07 16:01 | 41.50393 | 19.61097 | 10465 ft | 301 kts | 159° |
| 2026-05-07 16:01 | 41.48443 | 19.62424 | 10646 ft | 327 kts | 155° |
| 2026-05-07 16:02 | 41.46388 | 19.63966 | 10813 ft | 351 kts | 154° |
| 2026-05-07 16:02 | 41.44202 | 19.65639 | 10988 ft | 372 kts | 153° |
| 2026-05-07 16:02 | 41.41912 | 19.67390 | 11369 ft | 384 kts | 153° |
| 2026-05-07 16:02 | 41.39575 | 19.69161 | 12004 ft | 389 kts | 154° |
| 2026-05-07 16:03 | 41.37208 | 19.70939 | 12653 ft | 392 kts | 154° |
| 2026-05-07 16:03 | 41.34813 | 19.72721 | 13270 ft | 396 kts | 154° |
| 2026-05-07 16:03 | 41.32387 | 19.74516 | 13868 ft | 401 kts | 155° |
| 2026-05-07 16:03 | 41.29936 | 19.76322 | 14401 ft | 405 kts | 154° |
| 2026-05-07 16:04 | 41.27456 | 19.78145 | 14931 ft | 409 kts | 154° |
| 2026-05-07 16:04 | 41.24952 | 19.79982 | 15469 ft | 412 kts | 154° |
| 2026-05-07 16:04 | 41.22456 | 19.81814 | 15925 ft | 418 kts | 154° |
| 2026-05-07 16:04 | 41.19896 | 19.83691 | 16462 ft | 421 kts | 154° |
| 2026-05-07 16:05 | 41.17324 | 19.85576 | 17055 ft | 423 kts | 155° |
| 2026-05-07 16:05 | 41.14734 | 19.87470 | 17610 ft | 426 kts | 155° |
| 2026-05-07 16:05 | 41.12135 | 19.89371 | 18140 ft | 428 kts | 155° |
| 2026-05-07 16:05 | 41.09514 | 19.91285 | 18594 ft | 431 kts | 155° |
| 2026-05-07 16:06 | 41.06870 | 19.93216 | 18976 ft | 436 kts | 155° |
| 2026-05-07 16:06 | 41.04195 | 19.95166 | 19380 ft | 440 kts | 155° |
| 2026-05-07 16:06 | 41.02413 | 19.96464 | 19654 ft | 443 kts | 155° |
| 2026-05-07 16:06 | 40.99706 | 19.98435 | 20013 ft | 446 kts | 155° |
| 2026-05-07 16:07 | 40.96973 | 20.00424 | 20033 ft | 447 kts | 155° |
| 2026-05-07 16:07 | 40.94251 | 20.02405 | 20048 ft | 446 kts | 155° |
| 2026-05-07 16:07 | 40.91532 | 20.04379 | 20055 ft | 446 kts | 155° |
| 2026-05-07 16:07 | 40.88858 | 20.06475 | 20039 ft | 450 kts | 148° |
| 2026-05-07 16:08 | 40.85774 | 20.10176 | 20070 ft | 456 kts | 134° |
| 2026-05-07 16:08 | 40.84446 | 20.12404 | 20060 ft | 458 kts | 127° |
| 2026-05-07 16:08 | 40.82808 | 20.16026 | 20061 ft | 460 kts | 122° |
| 2026-05-07 16:08 | 40.81249 | 20.19719 | 20062 ft | 461 kts | 121° |
| 2026-05-07 16:09 | 40.79695 | 20.23415 | 20070 ft | 461 kts | 122° |
| 2026-05-07 16:09 | 40.78127 | 20.27117 | 20075 ft | 462 kts | 122° |
| 2026-05-07 16:09 | 40.76546 | 20.30812 | 20078 ft | 462 kts | 122° |
| 2026-05-07 16:09 | 40.74975 | 20.34450 | 20089 ft | 463 kts | 122° |
| 2026-05-07 16:10 | 40.73372 | 20.38138 | 20088 ft | 464 kts | 122° |
| 2026-05-07 16:10 | 40.71762 | 20.41830 | 20094 ft | 464 kts | 122° |
| 2026-05-07 16:10 | 40.70153 | 20.45514 | 20099 ft | 464 kts | 122° |
| 2026-05-07 16:10 | 40.68541 | 20.49199 | 20086 ft | 463 kts | 122° |
| 2026-05-07 16:11 | 40.66933 | 20.52872 | 20101 ft | 462 kts | 122° |
| 2026-05-07 16:11 | 40.65331 | 20.56531 | 20102 ft | 462 kts | 122° |
| 2026-05-07 16:11 | 40.63727 | 20.60189 | 20106 ft | 460 kts | 122° |
| 2026-05-07 16:11 | 40.62126 | 20.63835 | 20112 ft | 460 kts | 122° |
| 2026-05-07 16:12 | 40.60525 | 20.67476 | 20102 ft | 460 kts | 122° |
| 2026-05-07 16:12 | 40.58917 | 20.71128 | 20109 ft | 459 kts | 122° |
| 2026-05-07 16:12 | 40.57317 | 20.74760 | 20116 ft | 459 kts | 122° |
| 2026-05-07 16:12 | 40.55712 | 20.78397 | 20121 ft | 460 kts | 122° |
| 2026-05-07 16:13 | 40.54106 | 20.82035 | 20109 ft | 461 kts | 122° |
| 2026-05-07 16:13 | 40.52495 | 20.85680 | 20107 ft | 461 kts | 122° |
| 2026-05-07 16:13 | 40.50877 | 20.89335 | 20113 ft | 462 kts | 122° |
| 2026-05-07 16:13 | 40.49254 | 20.92969 | 20109 ft | 462 kts | 124° |
| 2026-05-07 16:14 | 40.47370 | 20.96364 | 20106 ft | 458 kts | 134° |
| 2026-05-07 16:14 | 40.45109 | 20.99279 | 20107 ft | 454 kts | 142° |
| 2026-05-07 16:14 | 40.42862 | 21.01821 | 20106 ft | 453 kts | 143° |
| 2026-05-07 16:14 | 40.40470 | 21.04509 | 20120 ft | 453 kts | 143° |
| 2026-05-07 16:15 | 40.38083 | 21.07203 | 20124 ft | 453 kts | 143° |
| 2026-05-07 16:15 | 40.35692 | 21.09921 | 20114 ft | 453 kts | 142° |
| 2026-05-07 16:15 | 40.33314 | 21.12638 | 20121 ft | 453 kts | 142° |
| 2026-05-07 16:15 | 40.30937 | 21.15363 | 20109 ft | 453 kts | 142° |
| 2026-05-07 16:16 | 40.28565 | 21.18087 | 20117 ft | 453 kts | 142° |
| 2026-05-07 16:16 | 40.26195 | 21.20807 | 20113 ft | 454 kts | 142° |
| 2026-05-07 16:16 | 40.23815 | 21.23537 | 20121 ft | 455 kts | 142° |
| 2026-05-07 16:16 | 40.21427 | 21.26272 | 20119 ft | 455 kts | 142° |
| 2026-05-07 16:17 | 40.19041 | 21.29001 | 20110 ft | 455 kts | 142° |
| 2026-05-07 16:17 | 40.16684 | 21.31696 | 20110 ft | 455 kts | 142° |
| 2026-05-07 16:17 | 40.14304 | 21.34413 | 20119 ft | 455 kts | 142° |
| 2026-05-07 16:17 | 40.11919 | 21.37133 | 20114 ft | 454 kts | 142° |
| 2026-05-07 16:18 | 40.09534 | 21.39850 | 20116 ft | 454 kts | 142° |
| 2026-05-07 16:18 | 40.07153 | 21.42561 | 20113 ft | 454 kts | 142° |
| 2026-05-07 16:18 | 40.04769 | 21.45273 | 20111 ft | 454 kts | 142° |
| 2026-05-07 16:18 | 40.02388 | 21.47979 | 20110 ft | 454 kts | 142° |
| 2026-05-07 16:19 | 40.00005 | 21.50685 | 20105 ft | 454 kts | 142° |
| 2026-05-07 16:19 | 39.97637 | 21.53370 | 20104 ft | 454 kts | 142° |
| 2026-05-07 16:19 | 39.95252 | 21.56071 | 20107 ft | 454 kts | 142° |
| 2026-05-07 16:19 | 39.92871 | 21.58763 | 20115 ft | 454 kts | 142° |
| 2026-05-07 16:20 | 39.90464 | 21.61478 | 20294 ft | 460 kts | 142° |
| 2026-05-07 16:20 | 39.88073 | 21.64173 | 20797 ft | 460 kts | 142° |
| 2026-05-07 16:20 | 39.85656 | 21.66897 | 21328 ft | 460 kts | 142° |
| 2026-05-07 16:20 | 39.83231 | 21.69628 | 21756 ft | 463 kts | 142° |
| 2026-05-07 16:21 | 39.80783 | 21.72382 | 22123 ft | 467 kts | 142° |
| 2026-05-07 16:21 | 39.78312 | 21.75160 | 22515 ft | 470 kts | 142° |
| 2026-05-07 16:21 | 39.75834 | 21.77944 | 22906 ft | 472 kts | 142° |
| 2026-05-07 16:21 | 39.73338 | 21.80745 | 23287 ft | 475 kts | 142° |
| 2026-05-07 16:22 | 39.70830 | 21.83557 | 23656 ft | 477 kts | 142° |
| 2026-05-07 16:22 | 39.68307 | 21.86382 | 23944 ft | 480 kts | 142° |
| 2026-05-07 16:22 | 39.65767 | 21.89224 | 24229 ft | 483 kts | 142° |
| 2026-05-07 16:22 | 39.63211 | 21.92080 | 24468 ft | 487 kts | 142° |
| 2026-05-07 16:23 | 39.60668 | 21.94920 | 24711 ft | 490 kts | 142° |
| 2026-05-07 16:23 | 39.58042 | 21.97849 | 24988 ft | 493 kts | 142° |
| 2026-05-07 16:23 | 39.55567 | 22.00607 | 25253 ft | 495 kts | 142° |
| 2026-05-07 16:23 | 39.52948 | 22.03523 | 25507 ft | 497 kts | 142° |
| 2026-05-07 16:24 | 39.50313 | 22.06453 | 25760 ft | 500 kts | 142° |
| 2026-05-07 16:24 | 39.47668 | 22.09391 | 26011 ft | 503 kts | 142° |
| 2026-05-07 16:24 | 39.45003 | 22.12349 | 26255 ft | 505 kts | 142° |
| 2026-05-07 16:24 | 39.42330 | 22.15312 | 26483 ft | 508 kts | 142° |
| 2026-05-07 16:25 | 39.39640 | 22.18291 | 26754 ft | 509 kts | 142° |
| 2026-05-07 16:25 | 39.36950 | 22.21267 | 27103 ft | 509 kts | 142° |
| 2026-05-07 16:25 | 39.34264 | 22.24237 | 27510 ft | 507 kts | 142° |
| 2026-05-07 16:25 | 39.31585 | 22.27197 | 27851 ft | 507 kts | 142° |
| 2026-05-07 16:26 | 39.28896 | 22.30162 | 28177 ft | 508 kts | 143° |
| 2026-05-07 16:26 | 39.26202 | 22.33129 | 28521 ft | 509 kts | 143° |
| 2026-05-07 16:26 | 39.23512 | 22.36090 | 28910 ft | 508 kts | 143° |
| 2026-05-07 16:26 | 39.20852 | 22.39014 | 29284 ft | 509 kts | 143° |
| 2026-05-07 16:27 | 39.18157 | 22.41972 | 29603 ft | 509 kts | 143° |
| 2026-05-07 16:27 | 39.15456 | 22.44935 | 29933 ft | 510 kts | 143° |
| 2026-05-07 16:27 | 39.12746 | 22.47906 | 30242 ft | 511 kts | 143° |
| 2026-05-07 16:27 | 39.10026 | 22.50882 | 30407 ft | 514 kts | 143° |
| 2026-05-07 16:28 | 39.07292 | 22.53871 | 30631 ft | 516 kts | 143° |
| 2026-05-07 16:28 | 39.04547 | 22.56868 | 30849 ft | 519 kts | 143° |
| 2026-05-07 16:28 | 39.01785 | 22.59882 | 31034 ft | 522 kts | 144° |
| 2026-05-07 16:28 | 38.99021 | 22.62894 | 31231 ft | 524 kts | 144° |
| 2026-05-07 16:29 | 38.96231 | 22.65932 | 31463 ft | 526 kts | 144° |
| 2026-05-07 16:29 | 38.93438 | 22.68972 | 31680 ft | 528 kts | 144° |
| 2026-05-07 16:29 | 38.90622 | 22.72031 | 31839 ft | 532 kts | 144° |
| 2026-05-07 16:29 | 38.87787 | 22.75107 | 32056 ft | 534 kts | 144° |
| 2026-05-07 16:30 | 38.84948 | 22.78186 | 32270 ft | 535 kts | 144° |
| 2026-05-07 16:30 | 38.82133 | 22.81236 | 32429 ft | 538 kts | 144° |
| 2026-05-07 16:30 | 38.79257 | 22.84348 | 32548 ft | 542 kts | 144° |
| 2026-05-07 16:30 | 38.76370 | 22.87467 | 32757 ft | 544 kts | 144° |
| 2026-05-07 16:31 | 38.73474 | 22.90594 | 32990 ft | 544 kts | 144° |
| 2026-05-07 16:31 | 38.70575 | 22.93721 | 33199 ft | 547 kts | 144° |
| 2026-05-07 16:31 | 38.67656 | 22.96865 | 33385 ft | 549 kts | 144° |
| 2026-05-07 16:31 | 38.64738 | 23.00006 | 33605 ft | 550 kts | 145° |
| 2026-05-07 16:32 | 38.61908 | 23.03048 | 33794 ft | 553 kts | 145° |
| 2026-05-07 16:32 | 38.58967 | 23.06206 | 34005 ft | 554 kts | 145° |
| 2026-05-07 16:32 | 38.56006 | 23.09381 | 34121 ft | 556 kts | 144° |
| 2026-05-07 16:32 | 38.53035 | 23.12564 | 34323 ft | 556 kts | 144° |
| 2026-05-07 16:33 | 38.50065 | 23.15743 | 34555 ft | 555 kts | 144° |
| 2026-05-07 16:33 | 38.47147 | 23.18864 | 34785 ft | 555 kts | 144° |
| 2026-05-07 16:33 | 38.44181 | 23.22034 | 35028 ft | 554 kts | 144° |
| 2026-05-07 16:33 | 38.41222 | 23.25190 | 35266 ft | 554 kts | 144° |
| 2026-05-07 16:34 | 38.38264 | 23.28342 | 35507 ft | 553 kts | 144° |
| 2026-05-07 16:34 | 38.35318 | 23.31478 | 35779 ft | 552 kts | 144° |
| 2026-05-07 16:34 | 38.32369 | 23.34613 | 35995 ft | 552 kts | 144° |
| 2026-05-07 16:34 | 38.29414 | 23.37750 | 36207 ft | 552 kts | 144° |
| 2026-05-07 16:35 | 38.26471 | 23.40872 | 36523 ft | 548 kts | 144° |
| 2026-05-07 16:35 | 38.23583 | 23.43934 | 36889 ft | 545 kts | 144° |
| 2026-05-07 16:35 | 38.20675 | 23.47014 | 37121 ft | 544 kts | 144° |
| 2026-05-07 16:36 | 38.14826 | 23.53190 | 37103 ft | 547 kts | 144° |
| 2026-05-07 16:36 | 38.08982 | 23.59344 | 37094 ft | 543 kts | 144° |
| 2026-05-07 16:37 | 38.03167 | 23.65457 | 37109 ft | 540 kts | 144° |
| 2026-05-07 16:37 | 37.97413 | 23.71491 | 37110 ft | 537 kts | 144° |
| 2026-05-07 16:38 | 37.91646 | 23.77527 | 37147 ft | 539 kts | 144° |
| 2026-05-07 16:38 | 37.85455 | 23.82857 | 37135 ft | 536 kts | 160° |
| 2026-05-07 16:39 | 37.78730 | 23.87009 | 37137 ft | 542 kts | 160° |
| 2026-05-07 16:39 | 37.71944 | 23.91180 | 37123 ft | 548 kts | 160° |
| 2026-05-07 16:40 | 37.65083 | 23.95492 | 37123 ft | 551 kts | 159° |
| 2026-05-07 16:40 | 37.58232 | 23.99836 | 37126 ft | 551 kts | 159° |
| 2026-05-07 16:41 | 37.51506 | 24.04093 | 37128 ft | 551 kts | 159° |
| 2026-05-07 16:41 | 37.44647 | 24.08417 | 37132 ft | 550 kts | 159° |
| 2026-05-07 16:42 | 37.37790 | 24.12724 | 37129 ft | 550 kts | 159° |
| 2026-05-07 16:42 | 37.30934 | 24.17022 | 37131 ft | 550 kts | 159° |
| 2026-05-07 16:43 | 37.24125 | 24.21282 | 37128 ft | 550 kts | 159° |
| 2026-05-07 16:43 | 37.17286 | 24.25554 | 37138 ft | 549 kts | 159° |
| 2026-05-07 16:44 | 37.10454 | 24.29813 | 37136 ft | 548 kts | 159° |
| 2026-05-07 16:44 | 37.03620 | 24.34064 | 37133 ft | 548 kts | 159° |
| 2026-05-07 16:45 | 36.96802 | 24.38296 | 37121 ft | 547 kts | 159° |
| 2026-05-07 16:45 | 36.89984 | 24.42520 | 37130 ft | 547 kts | 159° |
| 2026-05-07 16:46 | 36.83163 | 24.46739 | 37139 ft | 547 kts | 159° |
| 2026-05-07 16:46 | 36.76348 | 24.50966 | 37132 ft | 548 kts | 156° |
| 2026-05-07 16:47 | 36.70132 | 24.56340 | 36682 ft | 540 kts | 143° |
| 2026-05-07 16:47 | 36.67250 | 24.59341 | 36147 ft | 540 kts | 142° |
| 2026-05-07 16:47 | 36.64378 | 24.62369 | 35514 ft | 542 kts | 142° |
| 2026-05-07 16:47 | 36.61529 | 24.65359 | 34876 ft | 544 kts | 142° |
| 2026-05-07 16:48 | 36.58614 | 24.68384 | 34250 ft | 546 kts | 143° |
| 2026-05-07 16:48 | 36.55684 | 24.71392 | 33585 ft | 546 kts | 143° |
| 2026-05-07 16:48 | 36.52752 | 24.74378 | 33088 ft | 543 kts | 143° |
| 2026-05-07 16:48 | 36.49835 | 24.77335 | 32642 ft | 538 kts | 143° |
| 2026-05-07 16:49 | 36.46943 | 24.80261 | 32136 ft | 534 kts | 143° |
| 2026-05-07 16:49 | 36.44061 | 24.83173 | 31579 ft | 532 kts | 143° |
| 2026-05-07 16:49 | 36.41199 | 24.86063 | 31007 ft | 530 kts | 143° |
| 2026-05-07 16:49 | 36.38207 | 24.88661 | 30257 ft | 519 kts | 154° |
| 2026-05-07 16:50 | 36.34971 | 24.90550 | 29118 ft | 511 kts | 163° |
| 2026-05-07 16:50 | 36.31605 | 24.91915 | 27860 ft | 507 kts | 169° |
| 2026-05-07 16:50 | 36.28158 | 24.92737 | 26522 ft | 502 kts | 178° |
| 2026-05-07 16:50 | 36.24708 | 24.93144 | 25711 ft | 492 kts | 178° |
| 2026-05-07 16:51 | 36.21368 | 24.93568 | 25432 ft | 471 kts | 178° |
| 2026-05-07 16:51 | 36.18182 | 24.93999 | 25287 ft | 448 kts | 178° |
| 2026-05-07 16:51 | 36.15197 | 24.94417 | 25150 ft | 428 kts | 178° |
| 2026-05-07 16:51 | 36.12298 | 24.94827 | 25031 ft | 410 kts | 178° |
| 2026-05-07 16:52 | 36.09513 | 24.95221 | 24678 ft | 399 kts | 178° |
| 2026-05-07 16:52 | 36.06721 | 24.95607 | 23595 ft | 411 kts | 177° |
| 2026-05-07 16:52 | 36.03829 | 24.96002 | 22179 ft | 424 kts | 177° |
| 2026-05-07 16:52 | 36.00858 | 24.96411 | 20830 ft | 433 kts | 177° |
| 2026-05-07 16:53 | 35.97855 | 24.96828 | 19625 ft | 438 kts | 176° |
| 2026-05-07 16:53 | 35.94833 | 24.97252 | 18664 ft | 434 kts | 176° |
| 2026-05-07 16:53 | 35.91857 | 24.97671 | 17752 ft | 426 kts | 176° |
| 2026-05-07 16:53 | 35.88936 | 24.98082 | 16834 ft | 420 kts | 176° |
| 2026-05-07 16:54 | 35.86045 | 24.98487 | 15869 ft | 415 kts | 176° |
| 2026-05-07 16:54 | 35.83188 | 24.98885 | 14935 ft | 411 kts | 176° |
| 2026-05-07 16:54 | 35.80361 | 24.99278 | 14046 ft | 407 kts | 175° |
| 2026-05-07 16:54 | 35.78506 | 24.99536 | 13422 ft | 404 kts | 175° |
| 2026-05-07 16:55 | 35.75733 | 24.99921 | 12542 ft | 397 kts | 175° |
| 2026-05-07 16:55 | 35.73100 | 25.00286 | 11754 ft | 391 kts | 175° |
| 2026-05-07 16:55 | 35.69555 | 25.00770 | 10667 ft | 383 kts | 175° |
| 2026-05-07 16:55 | 35.67777 | 25.01007 | 10134 ft | 379 kts | 175° |
| 2026-05-07 16:56 | 35.65196 | 25.01342 | 9285 ft | 374 kts | 175° |
| 2026-05-07 16:56 | 35.62607 | 25.01667 | 8668 ft | 362 kts | 175° |
| 2026-05-07 16:56 | 35.57928 | 25.02239 | 8372 ft | 320 kts | 175° |
| 2026-05-07 16:57 | 35.55774 | 25.02495 | 8245 ft | 302 kts | 175° |
| 2026-05-07 16:57 | 35.53744 | 25.02734 | 8129 ft | 286 kts | 175° |
| 2026-05-07 16:57 | 35.51821 | 25.02984 | 8016 ft | 271 kts | 169° |
| 2026-05-07 16:57 | 35.50178 | 25.03974 | 7719 ft | 263 kts | 138° |
| 2026-05-07 16:58 | 35.49093 | 25.05745 | 7336 ft | 261 kts | 111° |
| 2026-05-07 16:58 | 35.48832 | 25.07916 | 6930 ft | 258 kts | 81° |
| 2026-05-07 16:58 | 35.49461 | 25.09929 | 6709 ft | 253 kts | 53° |
| 2026-05-07 16:58 | 35.50771 | 25.11310 | 6464 ft | 248 kts | 25° |
| 2026-05-07 16:59 | 35.52412 | 25.11777 | 6250 ft | 238 kts | 1° |
| 2026-05-07 16:59 | 35.53969 | 25.11436 | 6176 ft | 223 kts | 329° |
| 2026-05-07 16:59 | 35.55050 | 25.10130 | 6190 ft | 220 kts | 297° |
| 2026-05-07 16:59 | 35.55457 | 25.08326 | 6206 ft | 222 kts | 270° |
| 2026-05-07 17:00 | 35.55160 | 25.06480 | 6208 ft | 223 kts | 245° |
| 2026-05-07 17:00 | 35.54442 | 25.04674 | 6093 ft | 257 kts | 243° |
| 2026-05-07 17:00 | 35.53625 | 25.02569 | 5469 ft | 285 kts | 251° |
| 2026-05-07 17:00 | 35.53374 | 25.00200 | 5403 ft | 277 kts | 275° |
| 2026-05-07 17:01 | 35.53969 | 24.97983 | 5177 ft | 276 kts | 302° |
| 2026-05-07 17:01 | 35.55283 | 24.96297 | 4941 ft | 274 kts | 324° |
| 2026-05-07 17:01 | 35.56864 | 24.95017 | 4697 ft | 271 kts | 327° |
| 2026-05-07 17:01 | 35.58442 | 24.93776 | 4466 ft | 266 kts | 326° |
| 2026-05-07 17:02 | 35.59970 | 24.92565 | 4212 ft | 257 kts | 326° |
| 2026-05-07 17:02 | 35.61549 | 24.91606 | 3927 ft | 251 kts | 347° |
| 2026-05-07 17:02 | 35.63259 | 24.91627 | 3690 ft | 244 kts | 14° |
| 2026-05-07 17:02 | 35.64783 | 24.92450 | 3431 ft | 237 kts | 37° |
| 2026-05-07 17:03 | 35.65892 | 24.93877 | 3223 ft | 227 kts | 60° |
| 2026-05-07 17:03 | 35.66440 | 24.95622 | 3121 ft | 214 kts | 83° |
| 2026-05-07 17:03 | 35.66428 | 24.97391 | 3066 ft | 209 kts | 104° |
| 2026-05-07 17:03 | 35.65890 | 24.99063 | 3022 ft | 209 kts | 124° |
| 2026-05-07 17:04 | 35.64929 | 25.00348 | 3007 ft | 206 kts | 145° |
| 2026-05-07 17:04 | 35.63654 | 25.01122 | 2997 ft | 204 kts | 166° |
| 2026-05-07 17:04 | 35.62261 | 25.01434 | 3004 ft | 204 kts | 172° |
| 2026-05-07 17:04 | 35.60849 | 25.01687 | 2999 ft | 207 kts | 172° |
| 2026-05-07 17:05 | 35.59358 | 25.01953 | 3018 ft | 225 kts | 172° |
| 2026-05-07 17:05 | 35.57778 | 25.02236 | 3015 ft | 232 kts | 172° |
| 2026-05-07 17:05 | 35.56192 | 25.02524 | 3002 ft | 227 kts | 172° |
| 2026-05-07 17:05 | 35.54669 | 25.02800 | 2982 ft | 216 kts | 172° |
| 2026-05-07 17:06 | 35.53240 | 25.03211 | 2911 ft | 211 kts | 152° |
| 2026-05-07 17:06 | 35.52073 | 25.04218 | 2928 ft | 198 kts | 145° |
| 2026-05-07 17:06 | 35.50996 | 25.05106 | 2876 ft | 176 kts | 147° |
| 2026-05-07 17:06 | 35.50020 | 25.05889 | 2835 ft | 162 kts | 147° |
| 2026-05-07 17:07 | 35.48993 | 25.06699 | 2966 ft | 190 kts | 148° |
| 2026-05-07 17:07 | 35.47869 | 25.07581 | 2843 ft | 188 kts | 148° |
| 2026-05-07 17:07 | 35.46801 | 25.08409 | 2590 ft | 177 kts | 147° |
| 2026-05-07 17:07 | 35.45790 | 25.09174 | 2287 ft | 169 kts | 149° |
| 2026-05-07 17:08 | 35.44802 | 25.09920 | 1949 ft | 165 kts | 149° |
| 2026-05-07 17:08 | 35.43830 | 25.10652 | 1587 ft | 160 kts | 149° |
| 2026-05-07 17:08 | 35.42887 | 25.11343 | 1444 ft | 158 kts | 149° |
| 2026-05-07 17:08 | 35.41931 | 25.12030 | 1235 ft | 159 kts | 149° |
| 2026-05-07 17:09 | 35.40989 | 25.12703 | 1105 ft | 155 kts | 149° |
| 2026-05-07 17:09 | 35.40016 | 25.13295 | 1019 ft | 158 kts | 162° |
| 2026-05-07 17:09 | 35.38932 | 25.13504 | 960 ft | 158 kts | 175° |
| 2026-05-07 17:09 | 35.37834 | 25.13576 | 912 ft | 158 kts | 176° |
| 2026-05-07 17:10 | 35.36740 | 25.13645 | 932 ft | 158 kts | 176° |
| 2026-05-07 17:10 | 35.35629 | 25.13700 | 796 ft | 161 kts | 178° |
| 2026-05-07 17:10 | 35.34569 | 25.14020 | 601 ft | 154 kts | 146° |
| 2026-05-07 17:10 | 35.34155 | 25.15141 | 344 ft | 158 kts | 88° |
| 2026-05-07 17:11 | 35.34082 | 25.16499 | 133 ft | 163 kts | 95° |
| 2026-05-07 17:11 | 35.33989 | 25.17818 | 92 ft | 137 kts | 95° |
| 2026-05-07 17:11 | 35.33928 | 25.18701 | 89 ft | 74 kts | 94° |
| 2026-05-07 17:11 | 35.33903 | 25.19030 | 89 ft | 5 kts | 114° |
| 2026-05-07 17:12 | 35.33872 | 25.19034 | 88 ft | 6 kts | 227° |
| 2026-05-07 17:12 | 35.33837 | 25.18962 | 88 ft | 11 kts | 236° |
| 2026-05-07 17:12 | 35.33786 | 25.18901 | 89 ft | 10 kts | 209° |
| 2026-05-07 17:12 | 35.33726 | 25.18855 | 90 ft | 10 kts | 211° |
| 2026-05-07 17:13 | 35.33667 | 25.18811 | 92 ft | 10 kts | 211° |
| 2026-05-07 17:13 | 35.33609 | 25.18768 | 91 ft | 10 kts | 212° |
| 2026-05-07 17:13 | 35.33587 | 25.18689 | 89 ft | 12 kts | 276° |
| 2026-05-07 17:13 | 35.33631 | 25.18596 | 89 ft | 15 kts | 306° |
| 2026-05-07 17:14 | 35.33713 | 25.18458 | 91 ft | 25 kts | 306° |
| 2026-05-07 17:14 | 35.33821 | 25.18277 | 93 ft | 26 kts | 306° |
| 2026-05-07 17:14 | 35.33870 | 25.18077 | 94 ft | 24 kts | 274° |
| 2026-05-07 17:14 | 35.33876 | 25.17882 | 91 ft | 20 kts | 271° |
| 2026-05-07 17:15 | 35.33882 | 25.17791 | 93 ft | 8 kts | 283° |
| 2026-05-07 17:15 | 35.33892 | 25.17725 | 91 ft | 9 kts | 275° |
| 2026-05-07 17:15 | 35.33896 | 25.17650 | 90 ft | 7 kts | 262° |
| 2026-05-07 17:15 | 35.33855 | 25.17622 | 90 ft | 7 kts | 190° |
| 2026-05-07 17:16 | 35.33806 | 25.17617 | 90 ft | 7 kts | 184° |
| 2026-05-07 17:16 | 35.33762 | 25.17599 | 90 ft | 7 kts | 233° |
| 2026-05-07 17:16 | 35.33759 | 25.17551 | 92 ft | 4 kts | 274° |
| 2026-05-07 17:16 | 35.33759 | 25.17538 | 91 ft | 0 kts | 274° |
| 2026-05-07 17:21 | 35.33759 | 25.17537 | 91 ft | 0 kts | 275° |